Terminal Aerodrome Forecast
Issued by NWS

Home | Current Version | Previous Version | Text Only | Print | Product List | Glossary On
Versions: 1 2 3 4 5 6 7 8 9 10 11 12 13 14 15 16 17 18 19
000
FTUS43 KDTX 182320
TAFYIP
TAF
KYIP 182320Z 1900/1924 35012G24KT 4SM -RA BR BKN008 OVC014
     FM190200 33015G25KT 3SM -SNRA BR BKN010 OVC022
     FM190400 30018G30KT P6SM BKN022 OVC035
     FM191000 28015G24KT P6SM SCT028 BKN045
     FM191700 27014G22KT P6SM BKN035 BKN060=

USA.gov is the U.S. government's official web portal to all federal, state and local government web resources and services.